createdAt,value
2018-10-04T00:00:56.438Z,96070.43
2018-10-04T00:03:25.719Z,96072.20
2018-10-04T00:05:55.074Z,96077.98
2018-10-04T00:08:24.406Z,96081.88
2018-10-04T00:10:53.759Z,96078.97
2018-10-04T00:13:23.098Z,96078.70
2018-10-04T00:15:52.411Z,96084.48
2018-10-04T00:18:21.708Z,96079.62
2018-10-04T00:20:51.097Z,96077.84
2018-10-04T00:23:20.441Z,96075.48
2018-10-04T00:25:49.806Z,96078.13
2018-10-04T00:28:19.143Z,96076.09
2018-10-04T00:30:48.507Z,96071.20
2018-10-04T00:33:17.883Z,96074.22
2018-10-04T00:35:47.171Z,96079.77
2018-10-04T00:38:16.508Z,96079.25
2018-10-04T00:40:45.798Z,96086.29
2018-10-04T00:43:15.085Z,96081.84
2018-10-04T00:45:44.414Z,96082.16
2018-10-04T00:48:13.728Z,96079.22
2018-10-04T00:50:44.282Z,96076.14
2018-10-04T00:53:13.672Z,96075.12
2018-10-04T00:55:43.015Z,96069.48
2018-10-04T00:58:12.312Z,96069.23
2018-10-04T01:00:41.656Z,96072.80
2018-10-04T01:03:11.005Z,96064.05
2018-10-04T01:05:40.408Z,96062.39
2018-10-04T01:08:09.726Z,96061.57
2018-10-04T01:10:39.153Z,96063.66
2018-10-04T01:13:08.528Z,96063.82
2018-10-04T01:15:37.884Z,96071.88
2018-10-04T01:18:24.151Z,96060.27
2018-10-04T01:20:53.447Z,96062.78
2018-10-04T01:23:22.751Z,96059.28
2018-10-04T01:25:52.094Z,96057.03
2018-10-04T01:28:21.495Z,96066.16
2018-10-04T01:30:50.819Z,96059.90
2018-10-04T01:33:20.128Z,96061.22
2018-10-04T01:35:49.422Z,96055.88
2018-10-04T01:38:18.811Z,96050.08
2018-10-04T01:40:48.108Z,96058.16
2018-10-04T01:43:17.440Z,96059.61
2018-10-04T01:45:46.768Z,96059.25
2018-10-04T01:48:16.089Z,96067.17
2018-10-04T01:50:45.427Z,96063.97
2018-10-04T01:53:14.760Z,96066.60
2018-10-04T01:55:44.158Z,96063.03
2018-10-04T01:58:13.531Z,96059.56
2018-10-04T02:00:43.178Z,96059.23
2018-10-04T02:03:12.490Z,96060.33
2018-10-04T02:05:41.791Z,96065.73
2018-10-04T02:08:11.164Z,96061.37
2018-10-04T02:10:40.529Z,96059.47
2018-10-04T02:13:09.831Z,96061.48
2018-10-04T02:15:39.164Z,96057.56
2018-10-04T02:18:08.468Z,96059.34
2018-10-04T02:20:37.799Z,96057.80
2018-10-04T02:23:07.178Z,96060.03
2018-10-04T02:25:36.507Z,96063.43
2018-10-04T02:28:05.875Z,96064.02
2018-10-04T02:30:35.165Z,96063.19
2018-10-04T02:33:04.547Z,96059.78
2018-10-04T02:35:33.934Z,96062.16
2018-10-04T02:38:03.292Z,96059.90
2018-10-04T02:40:32.670Z,96059.09
2018-10-04T02:43:02.030Z,96054.83
2018-10-04T02:45:31.395Z,96057.43
2018-10-04T02:48:00.804Z,96062.78
2018-10-04T02:50:30.364Z,96060.27
2018-10-04T02:52:59.750Z,96057.20
2018-10-04T02:55:34.353Z,96056.86
2018-10-04T02:58:03.712Z,96049.74
2018-10-04T03:00:33.038Z,96059.09
2018-10-04T03:03:02.363Z,96055.09
2018-10-04T03:05:31.664Z,96054.62
2018-10-04T03:08:01.022Z,96048.36
2018-10-04T03:10:30.299Z,96051.74
2018-10-04T03:12:59.730Z,96050.58
2018-10-04T03:15:29.044Z,96040.88
2018-10-04T03:17:58.469Z,96040.63
2018-10-04T03:20:27.875Z,96037.89
2018-10-04T03:22:57.231Z,96035.05
2018-10-04T03:25:26.740Z,96038.13
2018-10-04T03:27:56.041Z,96038.60
2018-10-04T03:30:25.403Z,96028.08
2018-10-04T03:32:54.746Z,96031.15
2018-10-04T03:35:24.135Z,96034.09
2018-10-04T03:37:53.475Z,96031.02
2018-10-04T03:40:22.931Z,96032.69
2018-10-04T03:42:52.269Z,96032.22
2018-10-04T03:45:21.697Z,96033.29
2018-10-04T03:47:51.047Z,96027.72
2018-10-04T03:50:20.369Z,96027.95
2018-10-04T03:52:49.717Z,96023.70
2018-10-04T03:55:19.044Z,96025.34
2018-10-04T03:57:48.379Z,96020.48
2018-10-04T04:00:17.716Z,96022.53
2018-10-04T04:02:47.101Z,96020.25
2018-10-04T04:05:16.643Z,96028.77
2018-10-04T04:07:46.029Z,96028.06
2018-10-04T04:10:15.446Z,96031.98
2018-10-04T04:12:45.107Z,96030.89
2018-10-04T04:15:14.411Z,96027.26
2018-10-04T04:17:43.787Z,96026.06
2018-10-04T04:20:13.110Z,96028.89
2018-10-04T04:22:42.415Z,96030.94
2018-10-04T04:25:11.760Z,96030.95
2018-10-04T04:27:41.115Z,96030.22
2018-10-04T04:30:10.507Z,96029.05
2018-10-04T04:32:39.929Z,96024.67
2018-10-04T04:35:09.355Z,96025.00
2018-10-04T04:37:38.691Z,96033.88
2018-10-04T04:40:08.037Z,96027.62
2018-10-04T04:42:37.331Z,96030.06
2018-10-04T04:45:06.655Z,96029.48
2018-10-04T04:47:36.109Z,96028.27
2018-10-04T04:50:05.491Z,96031.74
2018-10-04T04:52:35.204Z,96027.11
2018-10-04T04:55:38.013Z,96033.06
2018-10-04T04:58:08.725Z,96030.78
2018-10-04T05:00:39.271Z,96028.08
2018-10-04T05:03:08.637Z,96031.98
2018-10-04T05:05:37.987Z,96033.52
2018-10-04T05:08:08.281Z,96033.41
2018-10-04T05:10:38.032Z,96031.14
2018-10-04T05:13:08.452Z,96029.83
2018-10-04T05:15:37.850Z,96034.12
2018-10-04T05:18:07.169Z,96027.70
2018-10-04T05:20:36.463Z,96029.72
2018-10-04T05:23:05.815Z,96030.19
2018-10-04T05:25:35.163Z,96035.66
2018-10-04T05:28:04.507Z,96034.36
2018-10-04T05:30:33.835Z,96032.91
2018-10-04T05:33:03.151Z,96034.94
2018-10-04T05:35:32.703Z,96035.77
2018-10-04T05:38:02.005Z,96030.66
2018-10-04T05:40:31.396Z,96033.38
2018-10-04T05:43:00.759Z,96029.44
2018-10-04T05:45:30.081Z,96031.66
2018-10-04T05:47:59.488Z,96033.69
2018-10-04T05:50:29.254Z,96028.23
2018-10-04T05:52:58.680Z,96025.87
2018-10-04T05:55:27.954Z,96029.87
2018-10-04T05:57:57.275Z,96028.77
2018-10-04T06:00:34.853Z,96036.13
2018-10-04T06:03:04.741Z,96036.11
2018-10-04T06:05:34.086Z,96037.72
2018-10-04T06:08:03.805Z,96039.69
2018-10-04T06:10:33.715Z,96043.98
2018-10-04T06:13:03.031Z,96050.52
2018-10-04T06:15:33.743Z,96053.02
2018-10-04T06:18:03.019Z,96056.66
2018-10-04T06:20:34.206Z,96048.31
2018-10-04T06:23:03.575Z,96046.55
2018-10-04T06:25:32.921Z,96042.23
2018-10-04T06:28:03.095Z,96047.00
2018-10-04T06:30:32.398Z,96048.05
2018-10-04T06:33:01.790Z,96048.77
2018-10-04T06:35:31.147Z,96051.19
2018-10-04T06:38:00.462Z,96049.83
2018-10-04T06:40:29.836Z,96049.70
2018-10-04T06:42:59.170Z,96052.18
2018-10-04T06:45:28.538Z,96056.86
2018-10-04T06:47:57.853Z,96047.62
2018-10-04T06:50:27.204Z,96043.51
2018-10-04T06:52:56.563Z,96047.00
2018-10-04T06:55:25.853Z,96049.70
2018-10-04T06:57:55.268Z,96042.75
2018-10-04T07:00:24.573Z,96054.54
2018-10-04T07:02:53.942Z,96053.41
2018-10-04T07:05:23.262Z,96052.61
2018-10-04T07:07:52.685Z,96053.43
2018-10-04T07:10:22.013Z,96063.23
2018-10-04T07:12:51.430Z,96056.29
2018-10-04T07:15:21.878Z,96066.05
2018-10-04T07:17:51.214Z,96060.81
2018-10-04T07:20:20.609Z,96058.84
2018-10-04T07:22:49.811Z,96052.06
2018-10-04T07:25:19.075Z,96056.28
2018-10-04T07:27:48.458Z,96060.25
2018-10-04T07:30:17.805Z,96059.59
2018-10-04T07:32:47.144Z,96058.20
2018-10-04T07:35:16.491Z,96056.44
2018-10-04T07:37:45.800Z,96051.47
2018-10-04T07:40:15.107Z,96052.37
2018-10-04T07:42:44.438Z,96057.45
2018-10-04T07:45:13.738Z,96050.94
2018-10-04T07:47:43.012Z,96043.72
2018-10-04T07:50:12.345Z,96046.52
2018-10-04T07:52:41.578Z,96046.27
2018-10-04T07:55:10.875Z,96049.25
2018-10-04T07:57:40.168Z,96044.48
2018-10-04T08:00:09.784Z,96045.66
2018-10-04T08:02:39.083Z,96047.11
2018-10-04T08:05:08.368Z,96046.92
2018-10-04T08:07:37.804Z,96046.58
2018-10-04T08:10:07.083Z,96046.15
2018-10-04T08:12:36.389Z,96048.05
2018-10-04T08:15:05.884Z,96045.81
2018-10-04T08:17:35.274Z,96032.76
2018-10-04T08:20:04.655Z,96036.61
2018-10-04T08:22:33.952Z,96035.85
2018-10-04T08:25:03.302Z,96030.91
2018-10-04T08:27:32.620Z,96035.78
2018-10-04T08:30:01.891Z,96028.69
2018-10-04T08:32:31.189Z,96035.61
2018-10-04T08:35:00.548Z,96026.38
2018-10-04T08:37:29.870Z,96026.94
2018-10-04T08:39:59.261Z,96021.19
2018-10-04T08:42:28.679Z,96021.83
2018-10-04T08:44:57.931Z,96022.79
2018-10-04T08:47:27.247Z,96021.34
2018-10-04T08:49:56.579Z,96016.31
2018-10-04T08:52:31.114Z,96024.48
2018-10-04T08:55:05.773Z,96016.89
2018-10-04T08:57:35.154Z,96025.64
2018-10-04T09:00:04.474Z,96015.33
2018-10-04T09:02:33.800Z,96015.20
2018-10-04T09:05:03.111Z,96013.63
2018-10-04T09:07:32.529Z,96008.69
2018-10-04T09:10:01.823Z,96015.08
2018-10-04T09:12:31.580Z,96005.39
2018-10-04T09:15:00.891Z,96006.34
2018-10-04T09:17:30.225Z,96015.99
2018-10-04T09:19:59.541Z,96004.71
2018-10-04T09:22:28.869Z,96007.73
2018-10-04T09:24:58.178Z,96003.75
2018-10-04T09:27:27.501Z,96002.07
2018-10-04T09:30:02.004Z,96003.72
2018-10-04T09:32:31.316Z,96001.86
2018-10-04T09:35:00.638Z,96002.41
2018-10-04T09:37:29.982Z,96000.72
2018-10-04T09:39:59.299Z,96001.29
2018-10-04T09:42:28.649Z,95999.98
2018-10-04T09:44:58.419Z,95998.64
2018-10-04T09:47:27.724Z,95997.67
2018-10-04T09:49:57.840Z,95992.92
2018-10-04T09:52:27.159Z,95988.96
2018-10-04T09:55:01.760Z,95987.27
2018-10-04T09:57:37.451Z,95984.00
2018-10-04T10:00:14.538Z,95985.09
2018-10-04T10:02:49.339Z,95979.68
2018-10-04T10:05:19.026Z,95972.67
2018-10-04T10:07:49.234Z,95974.73
2018-10-04T10:10:18.543Z,95962.16
2018-10-04T10:12:47.971Z,95962.52
2018-10-04T10:15:17.290Z,95970.02
2018-10-04T10:17:46.599Z,95965.27
2018-10-04T10:20:15.886Z,95956.28
2018-10-04T10:22:45.166Z,95964.48
2018-10-04T10:25:14.479Z,95972.86
2018-10-04T10:27:43.788Z,95968.48
2018-10-04T10:30:13.090Z,95966.77
2018-10-04T10:32:42.416Z,95959.30
2018-10-04T10:35:11.751Z,95962.85
2018-10-04T10:37:41.145Z,95960.02
2018-10-04T10:40:10.575Z,95955.57
2018-10-04T10:42:39.790Z,95948.64
2018-10-04T10:45:09.089Z,95949.58
2018-10-04T10:47:38.370Z,95950.05
2018-10-04T10:50:07.680Z,95944.05
2018-10-04T10:52:36.968Z,95952.22
2018-10-04T10:55:06.328Z,95952.20
2018-10-04T10:57:35.608Z,95943.28
2018-10-04T11:00:04.927Z,95947.32
2018-10-04T11:02:34.568Z,95942.88
2018-10-04T11:05:03.919Z,95942.22
2018-10-04T11:07:33.220Z,95936.14
2018-10-04T11:10:02.563Z,95938.19
2018-10-04T11:12:31.835Z,95935.21
2018-10-04T11:15:01.139Z,95935.70
2018-10-04T11:17:30.426Z,95918.33
2018-10-04T11:19:59.736Z,95914.93
2018-10-04T11:22:29.061Z,95919.77
2018-10-04T11:24:58.415Z,95910.84
2018-10-04T11:27:27.767Z,95909.37
2018-10-04T11:29:57.039Z,95907.71
2018-10-04T11:32:26.336Z,95903.80
2018-10-04T11:34:55.687Z,95900.41
2018-10-04T11:37:25.818Z,95896.80
2018-10-04T11:39:55.860Z,95887.38
2018-10-04T11:42:25.178Z,95885.80
2018-10-04T11:44:56.777Z,95889.27
2018-10-04T11:47:30.292Z,95878.20
2018-10-04T11:49:59.656Z,95881.53
2018-10-04T11:52:28.957Z,95876.34
2018-10-04T11:54:58.302Z,95877.63
2018-10-04T11:57:27.690Z,95862.49
2018-10-04T11:59:57.010Z,95861.05
2018-10-04T12:02:26.519Z,95869.89
2018-10-04T12:04:55.803Z,95862.89
2018-10-04T12:07:25.124Z,95866.09
2018-10-04T12:09:54.437Z,95864.41
2018-10-04T12:12:23.782Z,95863.86
2018-10-04T12:14:53.102Z,95857.45
2018-10-04T12:17:22.474Z,95860.92
2018-10-04T12:19:51.811Z,95856.55
2018-10-04T12:22:21.189Z,95858.25
2018-10-04T12:24:50.561Z,95856.87
2018-10-04T12:27:19.865Z,95850.66
2018-10-04T12:29:49.150Z,95850.66
2018-10-04T12:32:19.088Z,95847.49
2018-10-04T12:34:48.399Z,95852.23
2018-10-04T12:37:17.740Z,95850.56
2018-10-04T12:39:47.141Z,95838.30
2018-10-04T12:42:16.496Z,95847.16
2018-10-04T12:44:46.088Z,95847.66
2018-10-04T12:47:15.665Z,95846.33
2018-10-04T12:49:44.989Z,95841.02
2018-10-04T12:52:14.302Z,95839.20
2018-10-04T12:54:43.639Z,95839.52
2018-10-04T12:57:14.363Z,95840.84
2018-10-04T12:59:43.697Z,95845.59
2018-10-04T13:02:12.985Z,95844.94
2018-10-04T13:04:42.356Z,95835.68
2018-10-04T13:07:11.834Z,95836.10
2018-10-04T13:09:41.005Z,95836.57
2018-10-04T13:12:10.457Z,95833.66
2018-10-04T13:14:39.803Z,95829.88
2018-10-04T13:17:09.238Z,95823.97
2018-10-04T13:19:39.054Z,95833.61
2018-10-04T13:22:08.393Z,95828.91
2018-10-04T13:24:37.716Z,95831.24
2018-10-04T13:27:07.004Z,95825.30
2018-10-04T13:29:36.343Z,95824.40
2018-10-04T13:32:05.643Z,95816.25
2018-10-04T13:34:34.945Z,95821.36
2018-10-04T13:37:04.238Z,95811.94
2018-10-04T13:39:33.549Z,95815.52
2018-10-04T13:42:02.814Z,95813.06
2018-10-04T13:44:32.124Z,95813.81
2018-10-04T13:47:01.415Z,95811.00
2018-10-04T13:49:30.695Z,95809.25
2018-10-04T13:51:59.988Z,95803.92
2018-10-04T13:54:29.291Z,95812.35
2018-10-04T13:56:58.590Z,95801.50
2018-10-04T13:59:28.016Z,95805.77
2018-10-04T14:01:57.243Z,95804.09
2018-10-04T14:04:26.578Z,95803.20
2018-10-04T14:06:55.896Z,95806.70
2018-10-04T14:09:25.272Z,95809.91
2018-10-04T14:11:54.508Z,95803.92
2018-10-04T14:14:23.826Z,95806.75
2018-10-04T14:16:53.121Z,95804.13
2018-10-04T14:19:22.436Z,95801.70
2018-10-04T14:21:51.800Z,95802.59
2018-10-04T14:24:21.136Z,95795.26
2018-10-04T14:26:50.639Z,95796.86
2018-10-04T14:29:19.964Z,95799.65
2018-10-04T14:31:49.215Z,95791.78
2018-10-04T14:34:18.510Z,95797.66
2018-10-04T14:36:47.846Z,95799.31
2018-10-04T14:39:17.264Z,95798.31
2018-10-04T14:41:46.558Z,95796.70
2018-10-04T14:44:15.892Z,95791.67
2018-10-04T14:46:45.231Z,95791.91
2018-10-04T14:49:14.983Z,95778.42
2018-10-04T14:51:44.302Z,95785.26
2018-10-04T14:54:13.614Z,95788.47
2018-10-04T14:56:42.957Z,95784.52
2018-10-04T14:59:12.241Z,95786.35
2018-10-04T15:01:41.846Z,95785.55
2018-10-04T15:04:11.173Z,95789.05
2018-10-04T15:06:40.515Z,95789.39
2018-10-04T15:09:11.515Z,95781.33
2018-10-04T15:11:41.231Z,95779.98
2018-10-04T15:14:10.543Z,95778.89
2018-10-04T15:16:39.848Z,95784.34
2018-10-04T15:19:09.157Z,95781.81
2018-10-04T15:21:38.481Z,95783.08
2018-10-04T15:24:07.877Z,95774.74
2018-10-04T15:26:37.160Z,95779.19
2018-10-04T15:29:06.452Z,95777.32
2018-10-04T15:31:35.791Z,95770.83
2018-10-04T15:34:05.220Z,95771.19
2018-10-04T15:38:54.461Z,95770.56
2018-10-04T15:41:23.690Z,95766.83
2018-10-04T15:43:52.982Z,95776.97
2018-10-04T15:46:22.175Z,95768.54
2018-10-04T15:48:51.399Z,95764.07
2018-10-04T15:51:20.655Z,95764.30
2018-10-04T15:53:49.880Z,95761.33
2018-10-04T15:56:19.111Z,95765.52
2018-10-04T15:58:48.338Z,95760.55
2018-10-04T16:01:17.638Z,95763.02
2018-10-04T16:03:46.914Z,95760.10
2018-10-04T16:06:16.091Z,95760.88
2018-10-04T16:08:45.319Z,95760.63
2018-10-04T16:11:14.574Z,95766.20
2018-10-04T16:13:43.822Z,95766.68
2018-10-04T16:16:13.032Z,95763.63
2018-10-04T16:18:42.293Z,95771.23
2018-10-04T16:21:11.609Z,95770.31
2018-10-04T16:23:40.844Z,95774.22
2018-10-04T16:26:10.080Z,95778.98
2018-10-04T16:28:39.316Z,95772.44
2018-10-04T16:31:08.619Z,95774.01
2018-10-04T16:33:37.827Z,95774.39
2018-10-04T16:36:07.210Z,95773.47
2018-10-04T16:38:36.439Z,95772.23
2018-10-04T16:41:05.662Z,95776.72
2018-10-04T16:43:34.947Z,95779.84
2018-10-04T16:46:04.207Z,95780.23
2018-10-04T16:48:34.705Z,95775.50
2018-10-04T16:51:03.890Z,95777.63
2018-10-04T16:53:33.106Z,95770.89
2018-10-04T16:56:02.379Z,95766.80
2018-10-04T16:58:31.590Z,95766.97
2018-10-04T17:01:00.831Z,95767.42
2018-10-04T17:03:30.059Z,95773.43
2018-10-04T17:05:59.295Z,95771.27
2018-10-04T17:08:28.546Z,95774.20
2018-10-04T17:10:57.802Z,95778.25
2018-10-04T17:13:27.020Z,95778.05
2018-10-04T17:15:56.279Z,95781.48
2018-10-04T17:18:25.503Z,95782.59
2018-10-04T17:20:54.738Z,95778.45
2018-10-04T17:23:23.983Z,95780.53
2018-10-04T17:25:53.207Z,95777.20
2018-10-04T17:28:22.680Z,95780.94
2018-10-04T17:30:51.893Z,95779.72
2018-10-04T17:33:21.131Z,95778.97
2018-10-04T17:35:50.426Z,95772.14
2018-10-04T17:38:19.596Z,95770.07
2018-10-04T17:40:48.831Z,95772.92
2018-10-04T17:43:18.051Z,95774.95
2018-10-04T17:45:47.279Z,95776.20
2018-10-04T17:48:16.532Z,95777.12
2018-10-04T17:50:45.747Z,95774.25
2018-10-04T17:53:14.982Z,95774.79
2018-10-04T17:55:44.214Z,95777.50
2018-10-04T17:58:13.435Z,95780.84
2018-10-04T18:00:42.675Z,95772.80
2018-10-04T18:03:11.901Z,95773.73
2018-10-04T18:05:41.111Z,95768.01
2018-10-04T18:08:10.323Z,95775.33
2018-10-04T18:10:39.544Z,95771.83
2018-10-04T18:13:08.780Z,95765.00
2018-10-04T18:15:37.995Z,95767.78
2018-10-04T18:18:07.235Z,95764.47
2018-10-04T18:20:36.456Z,95767.06
2018-10-04T18:23:05.743Z,95766.36
2018-10-04T18:25:34.955Z,95772.27
2018-10-04T18:28:04.186Z,95774.16
2018-10-04T18:30:33.434Z,95768.16
2018-10-04T18:33:02.786Z,95773.27
2018-10-04T18:35:31.967Z,95777.44
2018-10-04T18:38:01.252Z,95778.69
2018-10-04T18:40:30.475Z,95778.13
2018-10-04T18:42:59.772Z,95777.20
2018-10-04T18:45:28.999Z,95780.17
2018-10-04T18:47:58.264Z,95778.37
2018-10-04T18:50:27.487Z,95784.86
2018-10-04T18:52:56.823Z,95790.92
2018-10-04T18:55:26.098Z,95781.63
2018-10-04T18:57:56.704Z,95787.45
2018-10-04T19:00:25.955Z,95777.66
2018-10-04T19:02:55.207Z,95776.70
2018-10-04T19:05:24.440Z,95778.13
2018-10-04T19:07:53.978Z,95777.64
2018-10-04T19:10:23.226Z,95780.89
2018-10-04T19:12:52.455Z,95773.69
2018-10-04T19:15:21.667Z,95777.11
2018-10-04T19:17:50.911Z,95777.87
2018-10-04T19:20:20.175Z,95771.73
2018-10-04T19:22:49.491Z,95780.56
2018-10-04T19:25:18.994Z,95777.20
2018-10-04T19:27:48.227Z,95769.63
2018-10-04T19:30:17.463Z,95775.26
2018-10-04T19:32:46.723Z,95771.22
2018-10-04T19:35:15.982Z,95773.95
2018-10-04T19:37:45.239Z,95768.25
2018-10-04T19:40:14.495Z,95769.63
2018-10-04T19:42:43.758Z,95769.42
2018-10-04T19:45:12.979Z,95772.95
2018-10-04T19:47:42.231Z,95776.86
2018-10-04T19:50:11.467Z,95783.66
2018-10-04T19:52:40.702Z,95778.09
2018-10-04T19:55:09.938Z,95782.02
2018-10-04T19:57:39.174Z,95784.69
2018-10-04T20:00:08.395Z,95781.16
2018-10-04T20:02:37.622Z,95779.72
2018-10-04T20:05:07.282Z,95788.12
2018-10-04T20:07:36.544Z,95782.62
2018-10-04T20:10:06.043Z,95780.89
2018-10-04T20:12:35.477Z,95785.56
2018-10-04T20:15:05.152Z,95778.77
2018-10-04T20:17:34.400Z,95786.10
2018-10-04T20:20:03.684Z,95784.29
2018-10-04T20:22:33.904Z,95775.48
2018-10-04T20:25:03.159Z,95772.36
2018-10-04T20:27:32.399Z,95776.42
2018-10-04T20:30:01.679Z,95775.67
2018-10-04T20:32:30.903Z,95774.76
2018-10-04T20:35:00.267Z,95781.52
2018-10-04T20:37:29.535Z,95766.58
2018-10-04T20:39:58.762Z,95771.01
2018-10-04T20:42:28.013Z,95770.55
2018-10-04T20:44:57.270Z,95767.70
2018-10-04T20:47:26.559Z,95765.46
2018-10-04T20:49:57.300Z,95763.80
2018-10-04T20:52:26.541Z,95759.45
2018-10-04T20:54:55.807Z,95760.77
2018-10-04T20:57:25.045Z,95758.38
2018-10-04T20:59:54.298Z,95755.20
2018-10-04T21:02:23.523Z,95761.05
2018-10-04T21:04:53.028Z,95757.33
2018-10-04T21:07:22.331Z,95760.30
2018-10-04T21:09:51.583Z,95756.06
2018-10-04T21:12:20.874Z,95752.41
2018-10-04T21:14:50.125Z,95745.35
2018-10-04T21:17:19.338Z,95752.92
2018-10-04T21:19:48.586Z,95758.41
2018-10-04T21:22:17.894Z,95752.62
2018-10-04T21:24:47.099Z,95755.30
2018-10-04T21:27:16.402Z,95752.51
2018-10-04T21:29:45.713Z,95754.92
2018-10-04T21:32:14.970Z,95750.80
2018-10-04T21:34:44.315Z,95742.65
2018-10-04T21:37:13.558Z,95739.46
2018-10-04T21:39:42.808Z,95740.65
2018-10-04T21:42:12.038Z,95738.66
2018-10-04T21:44:41.347Z,95740.09
2018-10-04T21:47:10.580Z,95732.39
2018-10-04T21:49:39.847Z,95741.91
2018-10-04T21:52:09.079Z,95740.77
2018-10-04T21:54:38.308Z,95747.25
2018-10-04T21:57:07.557Z,95743.13
2018-10-04T21:59:36.807Z,95747.25
2018-10-04T22:02:06.100Z,95744.27
2018-10-04T22:04:35.352Z,95747.27
2018-10-04T22:07:04.566Z,95744.45
2018-10-04T22:09:33.788Z,95749.09
2018-10-04T22:12:03.085Z,95738.45
2018-10-04T22:14:32.324Z,95743.89
2018-10-04T22:17:01.555Z,95736.23
2018-10-04T22:19:30.802Z,95741.44
2018-10-04T22:22:00.051Z,95738.61
2018-10-04T22:24:29.287Z,95734.94
2018-10-04T22:26:58.534Z,95734.80
2018-10-04T22:29:27.870Z,95736.33
2018-10-04T22:31:57.099Z,95731.02
2018-10-04T22:34:26.363Z,95727.00
2018-10-04T22:36:55.719Z,95731.28
2018-10-04T22:39:24.942Z,95728.21
2018-10-04T22:41:54.174Z,95729.64
2018-10-04T22:44:23.668Z,95725.84
2018-10-04T22:46:52.923Z,95724.45
2018-10-04T22:49:22.171Z,95723.03
2018-10-04T22:51:51.430Z,95720.41
2018-10-04T22:54:20.654Z,95721.62
2018-10-04T22:56:50.441Z,95728.00
2018-10-04T22:59:19.614Z,95720.56
2018-10-04T23:01:48.836Z,95712.52
2018-10-04T23:04:18.078Z,95721.63
2018-10-04T23:06:47.299Z,95721.27
2018-10-04T23:09:16.539Z,95726.94
2018-10-04T23:11:45.785Z,95723.64
2018-10-04T23:14:15.274Z,95719.38
2018-10-04T23:16:44.515Z,95722.69
2018-10-04T23:19:13.748Z,95721.25
2018-10-04T23:21:42.991Z,95722.55
2018-10-04T23:24:12.232Z,95714.06
2018-10-04T23:26:41.476Z,95721.02
2018-10-04T23:29:10.715Z,95719.48
2018-10-04T23:31:39.968Z,95719.48
2018-10-04T23:34:09.208Z,95714.05
2018-10-04T23:36:38.477Z,95714.29
2018-10-04T23:39:09.960Z,95718.68
2018-10-04T23:41:39.310Z,95712.75
2018-10-04T23:44:08.566Z,95711.92
2018-10-04T23:46:37.811Z,95707.79
2018-10-04T23:49:07.091Z,95716.05
2018-10-04T23:51:36.314Z,95708.86
2018-10-04T23:54:05.586Z,95711.33
2018-10-04T23:56:34.828Z,95706.83
2018-10-04T23:59:05.023Z,95708.63
